createdAt,value
2019-03-01T00:01:08.243Z,990.35
2019-03-01T00:02:05.075Z,990.37
2019-03-01T00:02:58.083Z,990.40
2019-03-01T00:03:58.069Z,990.40
2019-03-01T00:04:58.099Z,990.39
2019-03-01T00:05:58.092Z,990.39
2019-03-01T00:06:58.038Z,990.42
2019-03-01T00:07:58.044Z,990.38
2019-03-01T00:08:58.022Z,990.38
2019-03-01T00:09:58.016Z,990.39
2019-03-01T00:10:58.056Z,990.41
2019-03-01T00:11:57.985Z,990.44
2019-03-01T00:12:57.977Z,990.38
2019-03-01T00:13:57.963Z,990.39
2019-03-01T00:14:57.952Z,990.39
2019-03-01T00:15:57.955Z,990.39
2019-03-01T00:16:57.973Z,990.39
2019-03-01T00:17:57.932Z,990.47
2019-03-01T00:18:57.921Z,990.44
2019-03-01T00:19:57.905Z,990.47
2019-03-01T00:20:57.898Z,990.45
2019-03-01T00:21:57.879Z,990.45
2019-03-01T00:22:57.924Z,990.49
2019-03-01T00:23:57.865Z,990.50
2019-03-01T00:24:57.849Z,990.54
2019-03-01T00:25:57.860Z,990.57
2019-03-01T00:26:57.834Z,990.58
2019-03-01T00:27:57.824Z,990.59
2019-03-01T00:28:57.861Z,990.61
2019-03-01T00:29:57.806Z,990.67
2019-03-01T00:30:57.787Z,990.69
2019-03-01T00:31:57.804Z,990.62
2019-03-01T00:33:08.002Z,990.71
2019-03-01T00:33:57.754Z,990.73
2019-03-01T00:34:57.757Z,990.71
2019-03-01T00:35:57.736Z,990.75
2019-03-01T00:36:57.733Z,990.77
2019-03-01T00:37:57.752Z,990.81
2019-03-01T00:38:57.791Z,990.79
2019-03-01T00:39:57.696Z,990.81
2019-03-01T00:40:57.720Z,990.77
2019-03-01T00:41:57.688Z,990.78
2019-03-01T00:42:57.663Z,990.84
2019-03-01T00:43:57.657Z,990.76
2019-03-01T00:44:57.679Z,990.77
2019-03-01T00:45:57.643Z,990.81
2019-03-01T00:46:57.621Z,990.80
2019-03-01T00:47:57.613Z,990.85
2019-03-01T00:48:57.638Z,990.83
2019-03-01T00:49:57.607Z,990.85
2019-03-01T00:50:57.620Z,990.87
2019-03-01T00:51:57.567Z,990.87
2019-03-01T00:52:57.557Z,990.87
2019-03-01T00:53:57.572Z,990.87
2019-03-01T00:54:57.607Z,990.85
2019-03-01T00:55:57.526Z,990.88
2019-03-01T00:56:57.579Z,990.92
2019-03-01T00:57:57.523Z,990.92
2019-03-01T00:58:57.501Z,990.91
2019-03-01T00:59:57.525Z,990.90
2019-03-01T01:00:57.490Z,990.89
2019-03-01T01:01:57.484Z,990.93
2019-03-01T01:02:57.478Z,990.92
2019-03-01T01:04:07.542Z,990.94
2019-03-01T01:04:57.435Z,990.92
2019-03-01T01:05:57.426Z,990.90
2019-03-01T01:06:57.428Z,990.89
2019-03-01T01:07:57.445Z,990.91
2019-03-01T01:08:57.405Z,990.92
2019-03-01T01:09:57.393Z,990.93
2019-03-01T01:10:57.374Z,990.86
2019-03-01T01:11:57.383Z,990.83
2019-03-01T01:12:57.362Z,990.96
2019-03-01T01:13:57.384Z,990.88
2019-03-01T01:14:57.354Z,990.94
2019-03-01T01:16:04.314Z,990.97
2019-03-01T01:16:57.309Z,990.94
2019-03-01T01:17:57.302Z,990.96
2019-03-01T01:18:57.293Z,990.93
2019-03-01T01:19:57.324Z,991.01
2019-03-01T01:20:57.354Z,990.89
2019-03-01T01:21:57.261Z,991.06
2019-03-01T01:22:57.247Z,991.02
2019-03-01T01:23:57.249Z,991.05
2019-03-01T01:24:57.246Z,991.01
2019-03-01T01:25:57.227Z,991.11
2019-03-01T01:26:57.214Z,991.05
2019-03-01T01:27:57.202Z,991.10
2019-03-01T01:28:57.201Z,991.07
2019-03-01T01:29:57.177Z,991.05
2019-03-01T01:30:57.264Z,991.05
2019-03-01T01:31:57.171Z,991.05
2019-03-01T01:32:57.162Z,991.07
2019-03-01T01:33:57.157Z,990.99
2019-03-01T01:34:57.126Z,991.08
2019-03-01T01:35:57.131Z,991.07
2019-03-01T01:36:57.144Z,991.08
2019-03-01T01:37:57.106Z,991.07
2019-03-01T01:38:57.086Z,991.09
2019-03-01T01:39:57.085Z,991.08
2019-03-01T01:40:57.081Z,991.10
2019-03-01T01:41:57.051Z,991.09
2019-03-01T01:42:57.084Z,991.11
2019-03-01T01:43:57.047Z,991.14
2019-03-01T01:44:57.023Z,991.09
2019-03-01T01:45:57.032Z,991.16
2019-03-01T01:47:08.106Z,991.12
2019-03-01T01:47:56.993Z,991.14
2019-03-01T01:48:57.026Z,991.17
2019-03-01T01:49:56.984Z,991.12
2019-03-01T01:50:56.968Z,991.15
2019-03-01T01:51:56.959Z,991.14
2019-03-01T01:52:56.941Z,991.12
2019-03-01T01:53:56.933Z,991.13
2019-03-01T01:54:57.009Z,991.12
2019-03-01T01:55:56.914Z,991.18
2019-03-01T01:56:56.910Z,991.13
2019-03-01T01:57:56.901Z,991.12
2019-03-01T01:58:56.909Z,991.16
2019-03-01T01:59:56.869Z,991.17
2019-03-01T02:00:56.894Z,991.16
2019-03-01T02:01:56.899Z,991.20
2019-03-01T02:02:56.860Z,991.18
2019-03-01T02:03:56.831Z,991.22
2019-03-01T02:04:56.826Z,991.16
2019-03-01T02:05:56.851Z,991.23
2019-03-01T02:06:56.848Z,991.21
2019-03-01T02:07:56.786Z,991.21
2019-03-01T02:08:56.777Z,991.26
2019-03-01T02:09:56.816Z,991.27
2019-03-01T02:10:56.764Z,991.32
2019-03-01T02:11:56.747Z,991.33
2019-03-01T02:12:56.773Z,991.35
2019-03-01T02:13:56.737Z,991.38
2019-03-01T02:14:56.723Z,991.43
2019-03-01T02:15:56.705Z,991.43
2019-03-01T02:16:56.693Z,991.45
2019-03-01T02:18:08.480Z,991.49
2019-03-01T02:18:58.017Z,991.50
2019-03-01T02:19:56.687Z,991.51
2019-03-01T02:20:56.652Z,991.53
2019-03-01T02:21:56.656Z,991.53
2019-03-01T02:22:56.647Z,991.52
2019-03-01T02:23:56.801Z,991.57
2019-03-01T02:24:56.649Z,991.59
2019-03-01T02:25:56.619Z,991.60
2019-03-01T02:26:56.599Z,991.64
2019-03-01T02:27:56.585Z,991.60
2019-03-01T02:28:56.599Z,991.62
2019-03-01T02:29:56.738Z,991.58
2019-03-01T02:30:56.569Z,991.61
2019-03-01T02:31:56.554Z,991.63
2019-03-01T02:32:56.541Z,991.61
2019-03-01T02:33:56.533Z,991.65
2019-03-01T02:34:56.528Z,991.69
2019-03-01T02:35:56.544Z,991.72
2019-03-01T02:36:56.492Z,991.73
2019-03-01T02:37:56.488Z,991.77
2019-03-01T02:38:56.504Z,991.75
2019-03-01T02:39:56.461Z,991.73
2019-03-01T02:40:56.448Z,991.73
2019-03-01T02:41:56.463Z,991.76
2019-03-01T02:42:56.452Z,991.82
2019-03-01T02:43:56.415Z,991.83
2019-03-01T02:44:56.437Z,991.84
2019-03-01T02:45:56.446Z,991.80
2019-03-01T02:46:56.395Z,991.78
2019-03-01T02:47:56.432Z,991.87
2019-03-01T02:49:07.315Z,991.92
2019-03-01T02:49:56.360Z,991.90
2019-03-01T02:50:56.348Z,991.88
2019-03-01T02:51:56.341Z,991.88
2019-03-01T02:52:56.365Z,991.93
2019-03-01T02:53:56.393Z,991.88
2019-03-01T02:54:56.305Z,991.87
2019-03-01T02:55:56.309Z,991.94
2019-03-01T02:56:56.304Z,991.87
2019-03-01T02:57:56.289Z,991.88
2019-03-01T02:58:56.273Z,991.91
2019-03-01T02:59:56.302Z,991.89
2019-03-01T03:00:56.271Z,991.90
2019-03-01T03:01:56.237Z,991.91
2019-03-01T03:02:56.228Z,991.90
2019-03-01T03:03:56.247Z,991.95
2019-03-01T03:04:56.224Z,991.92
2019-03-01T03:05:56.271Z,991.97
2019-03-01T03:06:56.200Z,991.97
2019-03-01T03:07:56.194Z,992.00
2019-03-01T03:08:56.182Z,992.00
2019-03-01T03:09:56.221Z,992.06
2019-03-01T03:10:56.143Z,992.04
2019-03-01T03:11:56.173Z,992.05
2019-03-01T03:12:56.136Z,992.02
2019-03-01T03:13:56.126Z,992.06
2019-03-01T03:14:56.106Z,992.06
2019-03-01T03:15:56.097Z,992.05
2019-03-01T03:16:56.095Z,991.99
2019-03-01T03:17:56.142Z,992.03
2019-03-01T03:18:56.070Z,992.04
2019-03-01T03:20:06.314Z,992.08
2019-03-01T03:20:56.043Z,992.08
2019-03-01T03:21:56.036Z,992.06
2019-03-01T03:22:56.035Z,992.05
2019-03-01T03:23:56.061Z,992.06
2019-03-01T03:24:55.999Z,992.10
2019-03-01T03:25:56.004Z,992.06
2019-03-01T03:26:55.992Z,992.04
2019-03-01T03:27:56.000Z,992.16
2019-03-01T03:28:56.006Z,992.09
2019-03-01T03:29:55.992Z,992.14
2019-03-01T03:30:55.989Z,992.11
2019-03-01T03:31:55.944Z,992.16
2019-03-01T03:32:55.915Z,992.16
2019-03-01T03:33:55.926Z,992.04
2019-03-01T03:34:55.923Z,992.09
2019-03-01T03:35:55.908Z,992.09
2019-03-01T03:36:55.884Z,992.13
2019-03-01T03:37:55.869Z,992.19
2019-03-01T03:38:55.872Z,992.19
2019-03-01T03:39:55.843Z,992.23
2019-03-01T03:40:55.913Z,992.24
2019-03-01T03:41:55.874Z,992.26
2019-03-01T03:42:55.827Z,992.25
2019-03-01T03:43:55.819Z,992.26
2019-03-01T03:44:55.823Z,992.26
2019-03-01T03:45:55.789Z,992.28
2019-03-01T03:46:55.783Z,992.31
2019-03-01T03:47:55.852Z,992.37
2019-03-01T03:48:55.753Z,992.35
2019-03-01T03:49:55.760Z,992.34
2019-03-01T03:51:05.939Z,992.33
2019-03-01T03:51:55.723Z,992.37
2019-03-01T03:52:55.712Z,992.41
2019-03-01T03:53:55.761Z,992.43
2019-03-01T03:54:55.689Z,992.43
2019-03-01T03:55:55.680Z,992.39
2019-03-01T03:56:55.696Z,992.43
2019-03-01T03:57:55.667Z,992.49
2019-03-01T03:58:55.655Z,992.45
2019-03-01T03:59:55.678Z,992.44
2019-03-01T04:00:55.628Z,992.47
2019-03-01T04:01:55.619Z,992.51
2019-03-01T04:02:55.639Z,992.46
2019-03-01T04:03:56.326Z,992.47
2019-03-01T04:04:55.602Z,992.46
2019-03-01T04:05:55.627Z,992.52
2019-03-01T04:06:55.577Z,992.53
2019-03-01T04:07:55.559Z,992.53
2019-03-01T04:08:56.355Z,992.61
2019-03-01T04:09:55.549Z,992.62
2019-03-01T04:10:55.572Z,992.63
2019-03-01T04:11:55.708Z,992.63
2019-03-01T04:12:55.640Z,992.63
2019-03-01T04:13:56.317Z,992.62
2019-03-01T04:14:55.493Z,992.75
2019-03-01T04:15:55.526Z,992.75
2019-03-01T04:16:55.471Z,992.74
2019-03-01T04:17:55.565Z,992.69
2019-03-01T04:18:55.469Z,992.65
2019-03-01T04:19:55.441Z,992.72
2019-03-01T04:20:55.453Z,992.69
2019-03-01T04:22:07.130Z,992.64
2019-03-01T04:22:55.428Z,992.68
2019-03-01T04:23:55.401Z,992.68
2019-03-01T04:24:55.396Z,992.69
2019-03-01T04:25:55.378Z,992.73
2019-03-01T04:26:55.369Z,992.77
2019-03-01T04:27:55.539Z,992.71
2019-03-01T04:28:55.347Z,992.78
2019-03-01T04:29:55.392Z,992.75
2019-03-01T04:30:55.327Z,992.74
2019-03-01T04:31:55.319Z,992.80
2019-03-01T04:32:55.317Z,992.80
2019-03-01T04:33:55.326Z,992.81
2019-03-01T04:34:55.283Z,992.77
2019-03-01T04:35:55.276Z,992.78
2019-03-01T04:36:55.291Z,992.80
2019-03-01T04:37:55.258Z,992.76
2019-03-01T04:38:55.237Z,992.81
2019-03-01T04:39:55.280Z,992.81
2019-03-01T04:40:55.224Z,992.85
2019-03-01T04:41:55.207Z,992.82
2019-03-01T04:42:55.204Z,992.84
2019-03-01T04:43:55.187Z,992.86
2019-03-01T04:44:55.189Z,992.85
2019-03-01T04:45:55.214Z,992.93
2019-03-01T04:46:55.184Z,992.92
2019-03-01T04:47:55.168Z,992.97
2019-03-01T04:48:55.146Z,992.94
2019-03-01T04:49:55.146Z,992.95
2019-03-01T04:50:55.134Z,993.02
2019-03-01T04:51:55.151Z,992.99
2019-03-01T04:53:05.305Z,993.02
2019-03-01T04:53:55.091Z,993.01
2019-03-01T04:54:55.080Z,993.04
2019-03-01T04:55:55.065Z,993.07
2019-03-01T04:56:55.058Z,993.05
2019-03-01T04:57:55.071Z,993.05
2019-03-01T04:58:55.033Z,993.07
2019-03-01T04:59:55.027Z,993.08
2019-03-01T05:00:55.025Z,993.14
2019-03-01T05:01:55.022Z,993.07
2019-03-01T05:02:55.028Z,993.08
2019-03-01T05:03:54.994Z,993.06
2019-03-01T05:04:54.982Z,993.14
2019-03-01T05:05:54.966Z,993.10
2019-03-01T05:06:54.953Z,993.07
2019-03-01T05:07:54.944Z,993.10
2019-03-01T05:08:55.113Z,993.12
2019-03-01T05:09:55.646Z,993.15
2019-03-01T05:10:54.926Z,993.17
2019-03-01T05:11:54.901Z,993.19
2019-03-01T05:12:54.903Z,993.14
2019-03-01T05:13:54.918Z,993.23
2019-03-01T05:14:54.911Z,993.21
2019-03-01T05:15:54.866Z,993.19
2019-03-01T05:16:54.854Z,993.23
2019-03-01T05:17:54.867Z,993.26
2019-03-01T05:18:54.895Z,993.28
2019-03-01T05:19:54.818Z,993.26
2019-03-01T05:20:54.853Z,993.24
2019-03-01T05:21:54.795Z,993.27
2019-03-01T05:22:54.783Z,993.32
2019-03-01T05:24:04.731Z,993.35
2019-03-01T05:24:54.766Z,993.33
2019-03-01T05:25:54.756Z,993.34
2019-03-01T05:26:54.758Z,993.34
2019-03-01T05:27:54.750Z,993.38
2019-03-01T05:28:54.749Z,993.41
2019-03-01T05:29:54.720Z,993.35
2019-03-01T05:30:54.719Z,993.44
2019-03-01T05:31:54.900Z,993.43
2019-03-01T05:32:54.687Z,993.44
2019-03-01T05:33:55.437Z,993.46
2019-03-01T05:34:54.667Z,993.49
2019-03-01T05:35:54.661Z,993.54
2019-03-01T05:36:54.656Z,993.53
2019-03-01T05:37:54.668Z,993.55
2019-03-01T05:38:54.625Z,993.52
2019-03-01T05:39:54.617Z,993.51
2019-03-01T05:40:54.599Z,993.57
2019-03-01T05:41:54.601Z,993.57
2019-03-01T05:42:54.589Z,993.62
2019-03-01T05:43:54.615Z,993.60
2019-03-01T05:44:54.571Z,993.64
2019-03-01T05:45:54.548Z,993.61
2019-03-01T05:46:54.538Z,993.66
2019-03-01T05:47:54.554Z,993.67
2019-03-01T05:48:54.525Z,993.71
2019-03-01T05:49:54.547Z,993.69
2019-03-01T05:50:54.511Z,993.74
2019-03-01T05:51:54.493Z,993.73
2019-03-01T05:52:54.481Z,993.74
2019-03-01T05:53:54.492Z,993.78
2019-03-01T05:55:04.907Z,993.76
2019-03-01T05:55:54.447Z,993.78
2019-03-01T05:56:54.436Z,993.78
2019-03-01T05:57:54.428Z,993.79
2019-03-01T05:58:54.423Z,993.81
2019-03-01T05:59:54.410Z,993.77
2019-03-01T06:00:54.457Z,993.89
2019-03-01T06:01:54.383Z,993.85
2019-03-01T06:02:54.388Z,993.86
2019-03-01T06:03:54.408Z,993.89
2019-03-01T06:04:54.390Z,993.94
2019-03-01T06:05:54.353Z,993.95
2019-03-01T06:06:54.374Z,993.91
2019-03-01T06:07:54.338Z,993.90
2019-03-01T06:08:54.315Z,993.85
2019-03-01T06:09:54.301Z,993.86
2019-03-01T06:10:54.295Z,993.84
2019-03-01T06:11:54.293Z,993.82
2019-03-01T06:12:54.314Z,993.85
2019-03-01T06:13:54.265Z,993.88
2019-03-01T06:14:54.261Z,993.88
2019-03-01T06:15:54.257Z,993.87
2019-03-01T06:16:54.237Z,993.92
2019-03-01T06:17:54.263Z,993.88
2019-03-01T06:18:54.221Z,993.91
2019-03-01T06:19:54.208Z,993.88
2019-03-01T06:20:54.196Z,993.91
2019-03-01T06:21:54.185Z,993.92
2019-03-01T06:22:54.175Z,993.91
2019-03-01T06:23:54.173Z,993.89
2019-03-01T06:24:54.159Z,993.94
2019-03-01T06:26:04.188Z,993.96
2019-03-01T06:26:54.127Z,993.91
2019-03-01T06:27:54.147Z,993.90
2019-03-01T06:28:54.293Z,993.94
2019-03-01T06:29:54.112Z,993.99
2019-03-01T06:30:54.100Z,993.94
2019-03-01T06:31:54.075Z,993.95
2019-03-01T06:32:54.088Z,993.96
2019-03-01T06:33:54.068Z,994.01
2019-03-01T06:34:54.095Z,993.98
2019-03-01T06:35:54.038Z,994.05
2019-03-01T06:36:54.042Z,994.04
2019-03-01T06:37:54.030Z,994.06
2019-03-01T06:38:54.023Z,993.98
2019-03-01T06:39:53.995Z,993.99
2019-03-01T06:40:54.022Z,994.04
2019-03-01T06:41:53.988Z,994.01
2019-03-01T06:42:53.967Z,994.00
2019-03-01T06:43:53.952Z,993.98
2019-03-01T06:44:53.996Z,994.02
2019-03-01T06:45:53.934Z,993.99
2019-03-01T06:46:53.970Z,994.03
2019-03-01T06:47:53.917Z,994.03
2019-03-01T06:48:53.910Z,994.04
2019-03-01T06:49:53.890Z,994.04
2019-03-01T06:50:53.888Z,994.06
2019-03-01T06:51:53.906Z,994.12
2019-03-01T06:52:53.898Z,994.11
2019-03-01T06:53:53.855Z,994.10
2019-03-01T06:54:53.858Z,994.08
2019-03-01T06:55:53.836Z,994.19
2019-03-01T06:57:04.018Z,994.12
2019-03-01T06:57:53.812Z,994.18
2019-03-01T06:58:53.841Z,994.19
2019-03-01T06:59:53.789Z,994.12
2019-03-01T07:00:53.780Z,994.11
2019-03-01T07:01:53.777Z,994.15
2019-03-01T07:02:53.755Z,994.17
2019-03-01T07:03:53.755Z,994.17
2019-03-01T07:04:53.758Z,994.23
2019-03-01T07:06:02.968Z,994.21
2019-03-01T07:06:54.714Z,994.23
2019-03-01T07:07:53.702Z,994.23
2019-03-01T07:08:53.701Z,994.21
2019-03-01T07:09:53.694Z,994.25
2019-03-01T07:10:53.745Z,994.24
2019-03-01T07:11:53.666Z,994.21
2019-03-01T07:12:53.655Z,994.23
2019-03-01T07:13:53.644Z,994.24
2019-03-01T07:14:53.676Z,994.23
2019-03-01T07:15:53.633Z,994.32
2019-03-01T07:16:53.618Z,994.27
2019-03-01T07:17:53.605Z,994.31
2019-03-01T07:18:53.590Z,994.34
2019-03-01T07:19:53.593Z,994.36
2019-03-01T07:20:53.575Z,994.31
2019-03-01T07:21:53.608Z,994.35
2019-03-01T07:22:53.554Z,994.43
2019-03-01T07:23:53.543Z,994.36
2019-03-01T07:24:53.536Z,994.37
2019-03-01T07:25:54.881Z,994.39
2019-03-01T07:26:53.514Z,994.41
2019-03-01T07:28:04.107Z,994.45
2019-03-01T07:28:53.494Z,994.43
2019-03-01T07:29:53.477Z,994.40
2019-03-01T07:30:53.486Z,994.40
2019-03-01T07:31:53.460Z,994.43
2019-03-01T07:32:53.476Z,994.37
2019-03-01T07:33:53.478Z,994.43
2019-03-01T07:34:53.495Z,994.44
2019-03-01T07:35:53.434Z,994.43
2019-03-01T07:36:53.410Z,994.50
2019-03-01T07:37:53.419Z,994.50
2019-03-01T07:38:53.419Z,994.43
2019-03-01T07:39:53.423Z,994.54
2019-03-01T07:40:53.387Z,994.55
2019-03-01T07:41:53.365Z,994.52
2019-03-01T07:42:53.360Z,994.55
2019-03-01T07:43:53.348Z,994.50
2019-03-01T07:44:53.330Z,994.56
2019-03-01T07:45:53.383Z,994.55
2019-03-01T07:46:54.281Z,994.59
2019-03-01T07:47:53.324Z,994.55
2019-03-01T07:48:53.286Z,994.64
2019-03-01T07:49:53.290Z,994.63
2019-03-01T07:50:55.237Z,994.62
2019-03-01T07:51:53.309Z,994.61
2019-03-01T07:52:53.275Z,994.69
2019-03-01T07:53:53.926Z,994.64
2019-03-01T07:54:53.744Z,994.68
2019-03-01T07:55:53.240Z,994.62
2019-03-01T07:56:53.225Z,994.66
2019-03-01T07:57:53.237Z,994.66
2019-03-01T07:59:03.203Z,994.72
2019-03-01T07:59:53.172Z,994.68
2019-03-01T08:00:54.634Z,994.71
2019-03-01T08:01:53.156Z,994.70
2019-03-01T08:02:53.145Z,994.75
2019-03-01T08:03:53.276Z,994.73
2019-03-01T08:04:53.124Z,994.78
2019-03-01T08:05:53.114Z,994.78
2019-03-01T08:06:53.103Z,994.83
2019-03-01T08:07:56.377Z,994.77
2019-03-01T08:08:53.083Z,994.84
2019-03-01T08:09:54.210Z,994.80
2019-03-01T08:10:53.545Z,994.81
2019-03-01T08:11:53.053Z,994.79
2019-03-01T08:12:53.036Z,994.85
2019-03-01T08:13:54.256Z,994.77
2019-03-01T08:14:53.022Z,994.79
2019-03-01T08:15:53.052Z,994.75
2019-03-01T08:16:56.044Z,994.75
2019-03-01T08:17:53.003Z,994.75
2019-03-01T08:18:52.972Z,994.76
2019-03-01T08:19:54.983Z,994.76
2019-03-01T08:20:53.959Z,994.82
2019-03-01T08:21:52.939Z,994.75
2019-03-01T08:22:52.933Z,994.81
2019-03-01T08:23:52.923Z,994.78
2019-03-01T08:24:52.948Z,994.73
2019-03-01T08:25:55.493Z,994.80
2019-03-01T08:26:53.897Z,994.76
2019-03-01T08:27:52.878Z,994.76
2019-03-01T08:28:54.743Z,994.75
